sensor_id;sensor_type;location;lat;lon;timestamp;P1;durP1;ratioP1;P2;durP2;ratioP2
44764;SDS011;30484;52.382;5.260;2022-11-28T00:01:53;28.10;;;14.77;;
44764;SDS011;30484;52.382;5.260;2022-11-28T00:04:22;27.92;;;14.43;;
44764;SDS011;30484;52.382;5.260;2022-11-28T00:06:53;30.25;;;15.70;;
44764;SDS011;30484;52.382;5.260;2022-11-28T00:09:22;25.27;;;15.30;;
44764;SDS011;30484;52.382;5.260;2022-11-28T00:11:53;29.02;;;16.15;;
44764;SDS011;30484;52.382;5.260;2022-11-28T00:14:22;29.80;;;15.75;;
44764;SDS011;30484;52.382;5.260;2022-11-28T00:16:51;28.08;;;15.27;;
44764;SDS011;30484;52.382;5.260;2022-11-28T00:19:20;34.13;;;16.42;;
44764;SDS011;30484;52.382;5.260;2022-11-28T00:21:51;32.92;;;17.08;;
44764;SDS011;30484;52.382;5.260;2022-11-28T00:24:20;33.38;;;16.02;;
44764;SDS011;30484;52.382;5.260;2022-11-28T00:26:49;34.30;;;16.50;;
44764;SDS011;30484;52.382;5.260;2022-11-28T00:29:18;33.03;;;17.50;;
44764;SDS011;30484;52.382;5.260;2022-11-28T00:31:48;31.05;;;17.05;;
44764;SDS011;30484;52.382;5.260;2022-11-28T00:34:17;30.13;;;17.70;;
44764;SDS011;30484;52.382;5.260;2022-11-28T00:36:46;28.52;;;17.15;;
44764;SDS011;30484;52.382;5.260;2022-11-28T00:39:17;36.45;;;17.90;;
44764;SDS011;30484;52.382;5.260;2022-11-28T00:41:46;34.63;;;18.27;;
44764;SDS011;30484;52.382;5.260;2022-11-28T00:44:15;36.13;;;17.40;;
44764;SDS011;30484;52.382;5.260;2022-11-28T00:46:44;31.17;;;18.25;;
44764;SDS011;30484;52.382;5.260;2022-11-28T00:49:13;33.85;;;18.77;;
44764;SDS011;30484;52.382;5.260;2022-11-28T00:51:42;36.38;;;18.00;;
44764;SDS011;30484;52.382;5.260;2022-11-28T00:54:12;37.10;;;18.25;;
44764;SDS011;30484;52.382;5.260;2022-11-28T00:56:43;33.58;;;18.60;;
44764;SDS011;30484;52.382;5.260;2022-11-28T00:59:13;32.88;;;18.15;;
44764;SDS011;30484;52.382;5.260;2022-11-28T01:01:42;35.03;;;18.85;;
44764;SDS011;30484;52.382;5.260;2022-11-28T01:04:12;31.92;;;18.40;;
44764;SDS011;30484;52.382;5.260;2022-11-28T01:06:44;35.08;;;18.02;;
44764;SDS011;30484;52.382;5.260;2022-11-28T01:09:16;33.17;;;18.98;;
44764;SDS011;30484;52.382;5.260;2022-11-28T01:11:50;34.53;;;18.65;;
44764;SDS011;30484;52.382;5.260;2022-11-28T01:14:21;31.90;;;19.20;;
44764;SDS011;30484;52.382;5.260;2022-11-28T01:16:53;35.45;;;18.60;;
44764;SDS011;30484;52.382;5.260;2022-11-28T01:19:22;34.58;;;18.20;;
44764;SDS011;30484;52.382;5.260;2022-11-28T01:21:52;35.17;;;19.20;;
44764;SDS011;30484;52.382;5.260;2022-11-28T01:24:21;34.88;;;19.33;;
44764;SDS011;30484;52.382;5.260;2022-11-28T01:26:52;35.67;;;18.80;;
44764;SDS011;30484;52.382;5.260;2022-11-28T01:29:20;34.42;;;17.98;;
44764;SDS011;30484;52.382;5.260;2022-11-28T01:31:49;32.92;;;17.92;;
44764;SDS011;30484;52.382;5.260;2022-11-28T01:34:18;32.72;;;18.25;;
44764;SDS011;30484;52.382;5.260;2022-11-28T01:36:47;32.88;;;18.52;;
44764;SDS011;30484;52.382;5.260;2022-11-28T01:39:16;34.53;;;18.75;;
44764;SDS011;30484;52.382;5.260;2022-11-28T01:41:45;35.28;;;19.00;;
44764;SDS011;30484;52.382;5.260;2022-11-28T01:47:50;38.78;;;19.30;;
44764;SDS011;30484;52.382;5.260;2022-11-28T01:50:23;34.28;;;18.83;;
44764;SDS011;30484;52.382;5.260;2022-11-28T01:52:54;35.80;;;18.67;;
44764;SDS011;30484;52.382;5.260;2022-11-28T01:55:30;30.98;;;17.75;;
44764;SDS011;30484;52.382;5.260;2022-11-28T01:58:02;32.60;;;18.70;;
44764;SDS011;30484;52.382;5.260;2022-11-28T02:00:32;31.15;;;18.48;;
44764;SDS011;30484;52.382;5.260;2022-11-28T02:03:04;35.28;;;18.10;;
44764;SDS011;30484;52.382;5.260;2022-11-28T02:05:37;31.52;;;18.35;;
44764;SDS011;30484;52.382;5.260;2022-11-28T02:08:08;30.95;;;18.40;;
44764;SDS011;30484;52.382;5.260;2022-11-28T02:10:41;33.33;;;18.35;;
44764;SDS011;30484;52.382;5.260;2022-11-28T02:13:38;31.77;;;18.30;;
44764;SDS011;30484;52.382;5.260;2022-11-28T02:16:30;31.20;;;18.13;;
44764;SDS011;30484;52.382;5.260;2022-11-28T02:22:36;28.75;;;17.13;;
44764;SDS011;30484;52.382;5.260;2022-11-28T02:25:15;26.70;;;17.45;;
44764;SDS011;30484;52.382;5.260;2022-11-28T02:28:52;30.98;;;16.80;;
44764;SDS011;30484;52.382;5.260;2022-11-28T02:32:10;27.80;;;16.25;;
44764;SDS011;30484;52.382;5.260;2022-11-28T02:34:53;25.27;;;16.63;;
44764;SDS011;30484;52.382;5.260;2022-11-28T02:37:31;25.58;;;16.13;;
44764;SDS011;30484;52.382;5.260;2022-11-28T02:40:12;24.05;;;15.70;;
44764;SDS011;30484;52.382;5.260;2022-11-28T02:42:53;22.58;;;14.98;;
44764;SDS011;30484;52.382;5.260;2022-11-28T02:45:34;24.27;;;15.38;;
44764;SDS011;30484;52.382;5.260;2022-11-28T02:50:55;24.40;;;15.18;;
44764;SDS011;30484;52.382;5.260;2022-11-28T02:53:32;24.55;;;15.18;;
44764;SDS011;30484;52.382;5.260;2022-11-28T02:56:05;19.38;;;13.85;;
44764;SDS011;30484;52.382;5.260;2022-11-28T02:58:37;23.02;;;15.23;;
44764;SDS011;30484;52.382;5.260;2022-11-28T03:06:51;19.73;;;13.98;;
44764;SDS011;30484;52.382;5.260;2022-11-28T03:09:36;19.38;;;13.35;;
44764;SDS011;30484;52.382;5.260;2022-11-28T03:12:24;19.90;;;13.70;;
44764;SDS011;30484;52.382;5.260;2022-11-28T03:15:07;21.27;;;13.07;;
44764;SDS011;30484;52.382;5.260;2022-11-28T03:17:41;20.27;;;13.32;;
44764;SDS011;30484;52.382;5.260;2022-11-28T03:20:25;19.08;;;13.13;;
44764;SDS011;30484;52.382;5.260;2022-11-28T03:23:10;18.45;;;12.32;;
44764;SDS011;30484;52.382;5.260;2022-11-28T03:25:50;17.05;;;11.88;;
44764;SDS011;30484;52.382;5.260;2022-11-28T03:28:25;17.63;;;13.00;;
44764;SDS011;30484;52.382;5.260;2022-11-28T03:31:07;17.83;;;12.48;;
44764;SDS011;30484;52.382;5.260;2022-11-28T03:36:15;19.95;;;12.98;;
44764;SDS011;30484;52.382;5.260;2022-11-28T03:38:49;20.23;;;13.77;;
44764;SDS011;30484;52.382;5.260;2022-11-28T03:41:23;18.88;;;13.82;;
44764;SDS011;30484;52.382;5.260;2022-11-28T03:43:59;20.98;;;14.68;;
44764;SDS011;30484;52.382;5.260;2022-11-28T03:46:31;21.83;;;15.40;;
44764;SDS011;30484;52.382;5.260;2022-11-28T03:49:04;23.83;;;16.48;;
44764;SDS011;30484;52.382;5.260;2022-11-28T03:51:38;21.85;;;15.93;;
44764;SDS011;30484;52.382;5.260;2022-11-28T03:56:47;25.17;;;16.80;;
44764;SDS011;30484;52.382;5.260;2022-11-28T03:59:22;31.20;;;18.40;;
44764;SDS011;30484;52.382;5.260;2022-11-28T04:01:58;28.50;;;20.02;;
44764;SDS011;30484;52.382;5.260;2022-11-28T04:04:34;29.67;;;20.25;;
44764;SDS011;30484;52.382;5.260;2022-11-28T04:07:13;35.55;;;22.02;;
44764;SDS011;30484;52.382;5.260;2022-11-28T04:09:56;31.58;;;20.77;;
44764;SDS011;30484;52.382;5.260;2022-11-28T04:12:36;34.30;;;22.50;;
44764;SDS011;30484;52.382;5.260;2022-11-28T04:15:17;33.42;;;22.80;;
44764;SDS011;30484;52.382;5.260;2022-11-28T04:17:54;34.35;;;23.58;;
44764;SDS011;30484;52.382;5.260;2022-11-28T04:20:31;37.72;;;25.13;;
44764;SDS011;30484;52.382;5.260;2022-11-28T04:23:09;38.15;;;25.17;;
44764;SDS011;30484;52.382;5.260;2022-11-28T04:25:43;42.50;;;26.17;;
44764;SDS011;30484;52.382;5.260;2022-11-28T04:28:19;42.20;;;25.27;;
44764;SDS011;30484;52.382;5.260;2022-11-28T04:30:55;41.92;;;26.02;;
44764;SDS011;30484;52.382;5.260;2022-11-28T04:33:28;41.67;;;25.13;;
44764;SDS011;30484;52.382;5.260;2022-11-28T04:36:04;47.55;;;27.30;;
44764;SDS011;30484;52.382;5.260;2022-11-28T04:38:37;45.47;;;26.27;;
44764;SDS011;30484;52.382;5.260;2022-11-28T04:41:11;43.70;;;27.13;;
44764;SDS011;30484;52.382;5.260;2022-11-28T04:43:49;51.17;;;28.33;;
44764;SDS011;30484;52.382;5.260;2022-11-28T04:46:25;47.50;;;29.55;;
44764;SDS011;30484;52.382;5.260;2022-11-28T04:51:30;51.60;;;29.45;;
44764;SDS011;30484;52.382;5.260;2022-11-28T04:54:09;50.95;;;30.17;;
44764;SDS011;30484;52.382;5.260;2022-11-28T04:56:46;57.97;;;30.52;;
44764;SDS011;30484;52.382;5.260;2022-11-28T05:01:51;55.72;;;30.13;;
44764;SDS011;30484;52.382;5.260;2022-11-28T05:04:23;53.85;;;31.35;;
44764;SDS011;30484;52.382;5.260;2022-11-28T05:06:59;53.65;;;31.35;;
44764;SDS011;30484;52.382;5.260;2022-11-28T05:09:30;55.28;;;31.45;;
44764;SDS011;30484;52.382;5.260;2022-11-28T05:12:00;58.92;;;32.15;;
44764;SDS011;30484;52.382;5.260;2022-11-28T05:14:31;57.60;;;32.55;;
44764;SDS011;30484;52.382;5.260;2022-11-28T05:17:01;54.33;;;32.20;;
44764;SDS011;30484;52.382;5.260;2022-11-28T05:19:30;60.42;;;33.42;;
44764;SDS011;30484;52.382;5.260;2022-11-28T05:21:59;54.72;;;32.83;;
44764;SDS011;30484;52.382;5.260;2022-11-28T05:24:28;60.97;;;33.78;;
44764;SDS011;30484;52.382;5.260;2022-11-28T05:26:59;60.95;;;34.08;;
44764;SDS011;30484;52.382;5.260;2022-11-28T05:29:31;62.03;;;33.75;;
44764;SDS011;30484;52.382;5.260;2022-11-28T05:32:02;61.97;;;33.95;;
44764;SDS011;30484;52.382;5.260;2022-11-28T05:34:31;63.42;;;34.65;;
44764;SDS011;30484;52.382;5.260;2022-11-28T05:37:00;63.88;;;34.13;;
44764;SDS011;30484;52.382;5.260;2022-11-28T05:39:31;66.40;;;34.88;;
44764;SDS011;30484;52.382;5.260;2022-11-28T05:42:00;64.78;;;33.90;;
44764;SDS011;30484;52.382;5.260;2022-11-28T05:44:29;67.82;;;34.28;;
44764;SDS011;30484;52.382;5.260;2022-11-28T05:47:00;63.72;;;33.47;;
44764;SDS011;30484;52.382;5.260;2022-11-28T05:49:29;62.80;;;32.85;;
44764;SDS011;30484;52.382;5.260;2022-11-28T05:51:57;58.40;;;32.53;;
44764;SDS011;30484;52.382;5.260;2022-11-28T05:54:27;68.72;;;33.75;;
44764;SDS011;30484;52.382;5.260;2022-11-28T05:56:59;62.80;;;33.33;;
44764;SDS011;30484;52.382;5.260;2022-11-28T05:59:28;65.53;;;34.30;;
44764;SDS011;30484;52.382;5.260;2022-11-28T06:01:58;64.25;;;34.78;;
44764;SDS011;30484;52.382;5.260;2022-11-28T06:04:29;66.13;;;33.85;;
44764;SDS011;30484;52.382;5.260;2022-11-28T06:07:01;68.03;;;35.10;;
44764;SDS011;30484;52.382;5.260;2022-11-28T06:09:30;63.72;;;32.47;;
44764;SDS011;30484;52.382;5.260;2022-11-28T06:12:05;59.10;;;33.70;;
44764;SDS011;30484;52.382;5.260;2022-11-28T06:14:34;62.95;;;31.65;;
44764;SDS011;30484;52.382;5.260;2022-11-28T06:17:04;59.63;;;30.48;;
44764;SDS011;30484;52.382;5.260;2022-11-28T06:19:34;62.80;;;31.95;;
44764;SDS011;30484;52.382;5.260;2022-11-28T06:22:03;58.65;;;30.10;;
44764;SDS011;30484;52.382;5.260;2022-11-28T06:24:32;60.33;;;31.27;;
44764;SDS011;30484;52.382;5.260;2022-11-28T06:27:01;59.25;;;31.60;;
44764;SDS011;30484;52.382;5.260;2022-11-28T06:29:33;56.95;;;30.55;;
44764;SDS011;30484;52.382;5.260;2022-11-28T06:32:02;61.75;;;30.92;;
44764;SDS011;30484;52.382;5.260;2022-11-28T06:34:32;57.58;;;28.45;;
44764;SDS011;30484;52.382;5.260;2022-11-28T06:37:00;59.00;;;29.80;;
44764;SDS011;30484;52.382;5.260;2022-11-28T06:39:29;53.47;;;28.70;;
44764;SDS011;30484;52.382;5.260;2022-11-28T06:41:58;55.10;;;28.55;;
44764;SDS011;30484;52.382;5.260;2022-11-28T06:44:27;56.45;;;28.25;;
44764;SDS011;30484;52.382;5.260;2022-11-28T06:46:58;58.38;;;28.42;;
44764;SDS011;30484;52.382;5.260;2022-11-28T06:49:28;52.17;;;28.42;;
44764;SDS011;30484;52.382;5.260;2022-11-28T06:51:57;50.72;;;27.17;;
44764;SDS011;30484;52.382;5.260;2022-11-28T06:54:27;50.92;;;28.52;;
44764;SDS011;30484;52.382;5.260;2022-11-28T06:56:56;50.97;;;28.45;;
44764;SDS011;30484;52.382;5.260;2022-11-28T06:59:24;51.85;;;27.33;;
44764;SDS011;30484;52.382;5.260;2022-11-28T07:01:54;52.72;;;27.45;;
44764;SDS011;30484;52.382;5.260;2022-11-28T07:04:34;53.95;;;27.52;;
44764;SDS011;30484;52.382;5.260;2022-11-28T07:07:03;47.92;;;27.08;;
44764;SDS011;30484;52.382;5.260;2022-11-28T07:09:32;44.55;;;25.88;;
44764;SDS011;30484;52.382;5.260;2022-11-28T07:12:01;46.35;;;26.23;;
44764;SDS011;30484;52.382;5.260;2022-11-28T07:14:33;51.80;;;27.02;;
44764;SDS011;30484;52.382;5.260;2022-11-28T07:17:04;50.38;;;27.38;;
44764;SDS011;30484;52.382;5.260;2022-11-28T07:19:36;47.88;;;27.00;;
44764;SDS011;30484;52.382;5.260;2022-11-28T07:22:05;47.78;;;27.88;;
44764;SDS011;30484;52.382;5.260;2022-11-28T07:24:36;49.97;;;27.50;;
44764;SDS011;30484;52.382;5.260;2022-11-28T07:27:06;50.40;;;27.73;;
44764;SDS011;30484;52.382;5.260;2022-11-28T07:29:35;51.05;;;26.48;;
44764;SDS011;30484;52.382;5.260;2022-11-28T07:32:05;48.85;;;27.67;;
44764;SDS011;30484;52.382;5.260;2022-11-28T07:34:35;52.03;;;27.83;;
44764;SDS011;30484;52.382;5.260;2022-11-28T07:37:07;53.15;;;27.63;;
44764;SDS011;30484;52.382;5.260;2022-11-28T07:39:36;52.55;;;28.83;;
44764;SDS011;30484;52.382;5.260;2022-11-28T07:42:05;46.33;;;26.00;;
44764;SDS011;30484;52.382;5.260;2022-11-28T07:44:35;49.67;;;26.48;;
44764;SDS011;30484;52.382;5.260;2022-11-28T07:47:04;53.15;;;27.30;;
44764;SDS011;30484;52.382;5.260;2022-11-28T07:49:35;50.05;;;27.02;;
44764;SDS011;30484;52.382;5.260;2022-11-28T07:52:06;54.58;;;27.02;;
44764;SDS011;30484;52.382;5.260;2022-11-28T07:54:35;55.75;;;27.33;;
44764;SDS011;30484;52.382;5.260;2022-11-28T07:57:05;51.55;;;27.48;;
44764;SDS011;30484;52.382;5.260;2022-11-28T07:59:38;50.25;;;27.17;;
44764;SDS011;30484;52.382;5.260;2022-11-28T08:02:08;55.63;;;28.45;;
44764;SDS011;30484;52.382;5.260;2022-11-28T08:04:41;57.00;;;28.05;;
44764;SDS011;30484;52.382;5.260;2022-11-28T08:07:19;57.05;;;27.67;;
44764;SDS011;30484;52.382;5.260;2022-11-28T08:09:48;60.45;;;29.27;;
44764;SDS011;30484;52.382;5.260;2022-11-28T08:12:19;59.67;;;28.95;;
44764;SDS011;30484;52.382;5.260;2022-11-28T08:14:49;65.97;;;29.42;;
44764;SDS011;30484;52.382;5.260;2022-11-28T08:17:19;66.63;;;30.40;;
44764;SDS011;30484;52.382;5.260;2022-11-28T08:19:52;63.28;;;29.80;;
44764;SDS011;30484;52.382;5.260;2022-11-28T08:22:22;62.92;;;29.50;;
44764;SDS011;30484;52.382;5.260;2022-11-28T08:24:52;70.93;;;31.00;;
44764;SDS011;30484;52.382;5.260;2022-11-28T08:27:21;71.55;;;32.50;;
44764;SDS011;30484;52.382;5.260;2022-11-28T08:29:49;70.85;;;30.75;;
44764;SDS011;30484;52.382;5.260;2022-11-28T08:32:20;70.22;;;31.80;;
44764;SDS011;30484;52.382;5.260;2022-11-28T08:34:50;73.40;;;32.55;;
44764;SDS011;30484;52.382;5.260;2022-11-28T08:37:21;76.63;;;32.30;;
44764;SDS011;30484;52.382;5.260;2022-11-28T08:39:50;72.90;;;32.67;;
44764;SDS011;30484;52.382;5.260;2022-11-28T08:42:20;75.80;;;32.75;;
44764;SDS011;30484;52.382;5.260;2022-11-28T08:44:48;72.63;;;32.50;;
44764;SDS011;30484;52.382;5.260;2022-11-28T08:47:18;73.00;;;32.25;;
44764;SDS011;30484;52.382;5.260;2022-11-28T08:49:47;73.05;;;32.38;;
44764;SDS011;30484;52.382;5.260;2022-11-28T08:52:16;81.85;;;33.05;;
44764;SDS011;30484;52.382;5.260;2022-11-28T08:54:50;78.13;;;31.67;;
44764;SDS011;30484;52.382;5.260;2022-11-28T08:57:19;80.40;;;32.33;;
44764;SDS011;30484;52.382;5.260;2022-11-28T08:59:49;82.35;;;32.97;;
44764;SDS011;30484;52.382;5.260;2022-11-28T09:02:18;78.70;;;31.80;;
44764;SDS011;30484;52.382;5.260;2022-11-28T09:04:52;86.28;;;33.20;;
44764;SDS011;30484;52.382;5.260;2022-11-28T09:07:22;83.07;;;33.03;;
44764;SDS011;30484;52.382;5.260;2022-11-28T09:09:53;87.22;;;32.85;;
44764;SDS011;30484;52.382;5.260;2022-11-28T09:12:23;86.53;;;32.72;;
44764;SDS011;30484;52.382;5.260;2022-11-28T09:14:53;85.78;;;34.67;;
44764;SDS011;30484;52.382;5.260;2022-11-28T09:17:22;88.45;;;34.00;;
44764;SDS011;30484;52.382;5.260;2022-11-28T09:19:52;95.88;;;35.65;;
44764;SDS011;30484;52.382;5.260;2022-11-28T09:22:24;99.93;;;36.03;;
44764;SDS011;30484;52.382;5.260;2022-11-28T09:24:59;93.82;;;34.85;;
44764;SDS011;30484;52.382;5.260;2022-11-28T09:27:31;88.72;;;33.47;;
44764;SDS011;30484;52.382;5.260;2022-11-28T09:30:01;92.68;;;34.63;;
44764;SDS011;30484;52.382;5.260;2022-11-28T09:32:32;101.78;;;35.53;;
44764;SDS011;30484;52.382;5.260;2022-11-28T09:35:01;94.82;;;34.97;;
44764;SDS011;30484;52.382;5.260;2022-11-28T09:37:33;96.15;;;36.38;;
44764;SDS011;30484;52.382;5.260;2022-11-28T09:40:05;93.95;;;35.20;;
44764;SDS011;30484;52.382;5.260;2022-11-28T09:42:43;94.50;;;36.08;;
44764;SDS011;30484;52.382;5.260;2022-11-28T09:45:14;85.75;;;35.08;;
44764;SDS011;30484;52.382;5.260;2022-11-28T09:47:47;84.97;;;34.92;;
44764;SDS011;30484;52.382;5.260;2022-11-28T09:50:21;90.53;;;35.75;;
44764;SDS011;30484;52.382;5.260;2022-11-28T09:52:56;85.20;;;35.30;;
44764;SDS011;30484;52.382;5.260;2022-11-28T09:55:36;84.78;;;34.47;;
44764;SDS011;30484;52.382;5.260;2022-11-28T09:58:11;85.90;;;34.83;;
44764;SDS011;30484;52.382;5.260;2022-11-28T10:00:48;77.55;;;33.35;;
44764;SDS011;30484;52.382;5.260;2022-11-28T10:03:27;80.00;;;33.03;;
44764;SDS011;30484;52.382;5.260;2022-11-28T10:06:11;82.53;;;34.55;;
44764;SDS011;30484;52.382;5.260;2022-11-28T10:08:54;85.07;;;32.95;;
44764;SDS011;30484;52.382;5.260;2022-11-28T10:11:50;75.10;;;33.10;;
44764;SDS011;30484;52.382;5.260;2022-11-28T10:14:42;76.57;;;32.03;;
44764;SDS011;30484;52.382;5.260;2022-11-28T10:17:36;74.53;;;32.33;;
44764;SDS011;30484;52.382;5.260;2022-11-28T10:20:17;71.57;;;32.80;;
44764;SDS011;30484;52.382;5.260;2022-11-28T10:22:53;75.25;;;32.67;;
44764;SDS011;30484;52.382;5.260;2022-11-28T10:25:29;77.57;;;33.28;;
44764;SDS011;30484;52.382;5.260;2022-11-28T10:28:12;74.95;;;30.98;;
44764;SDS011;30484;52.382;5.260;2022-11-28T10:30:52;74.55;;;31.92;;
44764;SDS011;30484;52.382;5.260;2022-11-28T10:33:32;76.13;;;32.28;;
44764;SDS011;30484;52.382;5.260;2022-11-28T10:36:12;75.03;;;32.42;;
44764;SDS011;30484;52.382;5.260;2022-11-28T10:38:50;82.90;;;33.55;;
44764;SDS011;30484;52.382;5.260;2022-11-28T10:41:22;87.13;;;34.47;;
44764;SDS011;30484;52.382;5.260;2022-11-28T10:44:02;75.72;;;31.92;;
44764;SDS011;30484;52.382;5.260;2022-11-28T10:46:49;81.25;;;31.88;;
44764;SDS011;30484;52.382;5.260;2022-11-28T10:49:31;91.22;;;33.58;;
44764;SDS011;30484;52.382;5.260;2022-11-28T10:52:14;89.10;;;32.10;;
44764;SDS011;30484;52.382;5.260;2022-11-28T10:55:06;87.57;;;32.83;;
44764;SDS011;30484;52.382;5.260;2022-11-28T10:57:52;89.72;;;34.22;;
44764;SDS011;30484;52.382;5.260;2022-11-28T11:00:33;90.72;;;34.03;;
44764;SDS011;30484;52.382;5.260;2022-11-28T11:03:04;99.97;;;34.78;;
44764;SDS011;30484;52.382;5.260;2022-11-28T11:05:39;93.60;;;32.92;;
44764;SDS011;30484;52.382;5.260;2022-11-28T11:08:16;101.30;;;34.13;;
44764;SDS011;30484;52.382;5.260;2022-11-28T11:13:25;99.82;;;33.03;;
44764;SDS011;30484;52.382;5.260;2022-11-28T11:15:59;97.78;;;33.90;;
44764;SDS011;30484;52.382;5.260;2022-11-28T11:18:31;111.13;;;36.63;;
44764;SDS011;30484;52.382;5.260;2022-11-28T11:21:07;105.47;;;37.22;;
44764;SDS011;30484;52.382;5.260;2022-11-28T11:23:42;97.60;;;34.45;;
44764;SDS011;30484;52.382;5.260;2022-11-28T11:26:18;115.10;;;37.17;;
44764;SDS011;30484;52.382;5.260;2022-11-28T11:28:51;105.60;;;35.53;;
44764;SDS011;30484;52.382;5.260;2022-11-28T11:31:23;111.65;;;37.88;;
44764;SDS011;30484;52.382;5.260;2022-11-28T11:34:00;103.90;;;35.80;;
44764;SDS011;30484;52.382;5.260;2022-11-28T11:36:32;116.63;;;38.85;;
44764;SDS011;30484;52.382;5.260;2022-11-28T11:39:04;108.22;;;37.67;;
44764;SDS011;30484;52.382;5.260;2022-11-28T11:41:44;113.72;;;36.80;;
44764;SDS011;30484;52.382;5.260;2022-11-28T11:44:23;114.35;;;38.03;;
44764;SDS011;30484;52.382;5.260;2022-11-28T11:47:04;115.53;;;37.17;;
44764;SDS011;30484;52.382;5.260;2022-11-28T11:49:34;123.95;;;39.53;;
44764;SDS011;30484;52.382;5.260;2022-11-28T11:52:06;117.43;;;37.70;;
44764;SDS011;30484;52.382;5.260;2022-11-28T11:54:56;128.57;;;39.88;;
44764;SDS011;30484;52.382;5.260;2022-11-28T11:57:31;129.87;;;40.50;;
44764;SDS011;30484;52.382;5.260;2022-11-28T12:00:05;120.95;;;39.08;;
44764;SDS011;30484;52.382;5.260;2022-11-28T12:02:50;130.90;;;41.67;;
44764;SDS011;30484;52.382;5.260;2022-11-28T12:05:24;132.43;;;39.90;;
44764;SDS011;30484;52.382;5.260;2022-11-28T12:08:19;126.78;;;41.58;;
44764;SDS011;30484;52.382;5.260;2022-11-28T12:11:05;124.25;;;40.80;;
44764;SDS011;30484;52.382;5.260;2022-11-28T12:13:43;137.35;;;41.08;;
44764;SDS011;30484;52.382;5.260;2022-11-28T12:16:30;117.95;;;40.47;;
44764;SDS011;30484;52.382;5.260;2022-11-28T12:19:20;127.75;;;39.88;;
44764;SDS011;30484;52.382;5.260;2022-11-28T12:21:59;137.10;;;40.38;;
44764;SDS011;30484;52.382;5.260;2022-11-28T12:24:43;139.25;;;40.97;;
44764;SDS011;30484;52.382;5.260;2022-11-28T12:27:29;132.25;;;41.72;;
44764;SDS011;30484;52.382;5.260;2022-11-28T12:30:21;144.63;;;42.95;;
44764;SDS011;30484;52.382;5.260;2022-11-28T12:33:03;133.50;;;42.78;;
44764;SDS011;30484;52.382;5.260;2022-11-28T12:35:48;132.65;;;40.80;;
44764;SDS011;30484;52.382;5.260;2022-11-28T12:38:38;136.30;;;41.38;;
44764;SDS011;30484;52.382;5.260;2022-11-28T12:41:27;128.57;;;40.50;;
44764;SDS011;30484;52.382;5.260;2022-11-28T12:44:22;139.18;;;42.17;;
44764;SDS011;30484;52.382;5.260;2022-11-28T12:47:01;137.18;;;42.63;;
44764;SDS011;30484;52.382;5.260;2022-11-28T12:49:40;129.45;;;43.03;;
44764;SDS011;30484;52.382;5.260;2022-11-28T12:52:28;129.95;;;41.75;;
44764;SDS011;30484;52.382;5.260;2022-11-28T12:57:56;127.85;;;40.10;;
44764;SDS011;30484;52.382;5.260;2022-11-28T13:00:34;120.43;;;40.50;;
44764;SDS011;30484;52.382;5.260;2022-11-28T13:03:23;119.40;;;38.65;;
44764;SDS011;30484;52.382;5.260;2022-11-28T13:06:15;118.53;;;38.75;;
44764;SDS011;30484;52.382;5.260;2022-11-28T13:08:59;118.60;;;40.35;;
44764;SDS011;30484;52.382;5.260;2022-11-28T13:11:52;125.60;;;39.53;;
44764;SDS011;30484;52.382;5.260;2022-11-28T13:14:44;124.93;;;39.28;;
44764;SDS011;30484;52.382;5.260;2022-11-28T13:17:24;125.60;;;40.70;;
44764;SDS011;30484;52.382;5.260;2022-11-28T13:20:08;129.25;;;41.47;;
44764;SDS011;30484;52.382;5.260;2022-11-28T13:22:52;114.85;;;41.42;;
44764;SDS011;30484;52.382;5.260;2022-11-28T13:25:39;126.35;;;39.80;;
44764;SDS011;30484;52.382;5.260;2022-11-28T13:28:16;113.97;;;39.03;;
44764;SDS011;30484;52.382;5.260;2022-11-28T13:30:54;113.28;;;37.97;;
44764;SDS011;30484;52.382;5.260;2022-11-28T13:33:42;116.55;;;40.25;;
44764;SDS011;30484;52.382;5.260;2022-11-28T13:36:21;116.45;;;37.05;;
44764;SDS011;30484;52.382;5.260;2022-11-28T13:39:25;119.22;;;39.28;;
44764;SDS011;30484;52.382;5.260;2022-11-28T13:42:10;112.75;;;38.97;;
44764;SDS011;30484;52.382;5.260;2022-11-28T13:45:19;105.95;;;37.72;;
44764;SDS011;30484;52.382;5.260;2022-11-28T13:47:57;110.50;;;39.53;;
44764;SDS011;30484;52.382;5.260;2022-11-28T13:50:34;104.65;;;36.17;;
44764;SDS011;30484;52.382;5.260;2022-11-28T13:53:21;110.15;;;38.50;;
44764;SDS011;30484;52.382;5.260;2022-11-28T13:55:52;100.47;;;36.88;;
44764;SDS011;30484;52.382;5.260;2022-11-28T13:58:59;95.45;;;37.28;;
44764;SDS011;30484;52.382;5.260;2022-11-28T14:01:30;106.25;;;39.97;;
44764;SDS011;30484;52.382;5.260;2022-11-28T14:04:12;110.18;;;39.75;;
44764;SDS011;30484;52.382;5.260;2022-11-28T14:06:48;108.63;;;39.38;;
44764;SDS011;30484;52.382;5.260;2022-11-28T14:09:27;98.95;;;39.40;;
44764;SDS011;30484;52.382;5.260;2022-11-28T14:12:14;96.80;;;38.05;;
44764;SDS011;30484;52.382;5.260;2022-11-28T14:14:58;105.32;;;38.40;;
44764;SDS011;30484;52.382;5.260;2022-11-28T14:18:00;98.57;;;37.08;;
44764;SDS011;30484;52.382;5.260;2022-11-28T14:21:08;90.78;;;36.53;;
44764;SDS011;30484;52.382;5.260;2022-11-28T14:23:51;105.47;;;37.25;;
44764;SDS011;30484;52.382;5.260;2022-11-28T14:26:29;90.90;;;38.47;;
44764;SDS011;30484;52.382;5.260;2022-11-28T14:29:05;86.05;;;36.58;;
44764;SDS011;30484;52.382;5.260;2022-11-28T14:31:51;91.30;;;37.75;;
44764;SDS011;30484;52.382;5.260;2022-11-28T14:34:43;98.70;;;37.35;;
44764;SDS011;30484;52.382;5.260;2022-11-28T14:37:45;91.32;;;36.63;;
44764;SDS011;30484;52.382;5.260;2022-11-28T14:43:33;93.25;;;36.63;;
44764;SDS011;30484;52.382;5.260;2022-11-28T14:52:07;106.85;;;38.45;;
44764;SDS011;30484;52.382;5.260;2022-11-28T14:55:12;96.18;;;36.53;;
44764;SDS011;30484;52.382;5.260;2022-11-28T14:57:54;100.45;;;37.80;;
44764;SDS011;30484;52.382;5.260;2022-11-28T15:00:29;96.25;;;37.22;;
44764;SDS011;30484;52.382;5.260;2022-11-28T15:03:13;98.45;;;39.13;;
44764;SDS011;30484;52.382;5.260;2022-11-28T15:05:56;106.53;;;38.88;;
44764;SDS011;30484;52.382;5.260;2022-11-28T15:08:36;87.45;;;37.25;;
44764;SDS011;30484;52.382;5.260;2022-11-28T15:14:33;101.30;;;37.67;;
44764;SDS011;30484;52.382;5.260;2022-11-28T15:17:05;99.40;;;37.05;;
44764;SDS011;30484;52.382;5.260;2022-11-28T15:19:42;107.68;;;38.13;;
44764;SDS011;30484;52.382;5.260;2022-11-28T15:22:32;90.57;;;35.60;;
44764;SDS011;30484;52.382;5.260;2022-11-28T15:25:17;102.72;;;36.90;;
44764;SDS011;30484;52.382;5.260;2022-11-28T15:27:50;89.65;;;36.00;;
44764;SDS011;30484;52.382;5.260;2022-11-28T15:30:21;110.03;;;36.03;;
44764;SDS011;30484;52.382;5.260;2022-11-28T15:32:54;98.93;;;37.38;;
44764;SDS011;30484;52.382;5.260;2022-11-28T15:35:37;106.63;;;39.03;;
44764;SDS011;30484;52.382;5.260;2022-11-28T15:38:23;120.10;;;41.10;;
44764;SDS011;30484;52.382;5.260;2022-11-28T15:41:08;105.68;;;40.85;;
44764;SDS011;30484;52.382;5.260;2022-11-28T15:43:42;109.25;;;40.00;;
44764;SDS011;30484;52.382;5.260;2022-11-28T15:46:15;121.57;;;45.15;;
44764;SDS011;30484;52.382;5.260;2022-11-28T15:48:58;124.70;;;40.72;;
44764;SDS011;30484;52.382;5.260;2022-11-28T15:51:31;108.75;;;38.38;;
44764;SDS011;30484;52.382;5.260;2022-11-28T15:54:16;107.95;;;37.88;;